WAT850 LSZH-LDSP
Flight info
| Callsign | WAT850 |
|---|---|
| Flight time | 1h 10m |
| Altitude | 41000 |
| Route | DEGES Z2 XEBIX L607 ELMEM N606 GIRIS DCT NIVAS DCT PEVAL DCT SAL |
| Aircraft | B77L/H-SDE1E2E3FGHIJ2J3J4J5M1RWXY/LB1D1 |
Departure
| Time | 2026-05-04 19:27 |
|---|---|
| Airport | Zürich Airport (LSZH) |
Arrival
| Time | 2026-05-04 20:38 |
|---|---|
| Airport | Split Saint Jerome Airport (LDSP) |
| Time | Latitude | Longitude | Altitude | Speed | Heading |
|---|---|---|---|---|---|
| 2026-05-04 18:24 | 47.45443 | 8.55693 | 1410 ft | 0 kts | 186° |
| 2026-05-04 19:15 | 47.45449 | 8.55694 | 1410 ft | 2 kts | 182° |
| 2026-05-04 19:15 | 47.45464 | 8.55692 | 1410 ft | 2 kts | 167° |
| 2026-05-04 19:15 | 47.45478 | 8.55685 | 1410 ft | 2 kts | 155° |
| 2026-05-04 19:16 | 47.45491 | 8.55674 | 1410 ft | 2 kts | 143° |
| 2026-05-04 19:16 | 47.45502 | 8.55659 | 1409 ft | 2 kts | 130° |
| 2026-05-04 19:16 | 47.45511 | 8.55642 | 1409 ft | 2 kts | 118° |
| 2026-05-04 19:16 | 47.45517 | 8.55621 | 1409 ft | 2 kts | 106° |
| 2026-05-04 19:17 | 47.45520 | 8.55600 | 1408 ft | 1 kts | 95° |
| 2026-05-04 19:17 | 47.45520 | 8.55597 | 1408 ft | 0 kts | 95° |
| 2026-05-04 19:20 | 47.45520 | 8.55598 | 1408 ft | 0 kts | 95° |
| 2026-05-04 19:20 | 47.45519 | 8.55626 | 1409 ft | 0 kts | 95° |
| 2026-05-04 19:20 | 47.45515 | 8.55688 | 1410 ft | 8 kts | 95° |
| 2026-05-04 19:20 | 47.45512 | 8.55737 | 1411 ft | 0 kts | 95° |
| 2026-05-04 19:21 | 47.45513 | 8.55781 | 1411 ft | 8 kts | 75° |
| 2026-05-04 19:21 | 47.45560 | 8.55833 | 1412 ft | 9 kts | 14° |
| 2026-05-04 19:21 | 47.45629 | 8.55875 | 1413 ft | 11 kts | 54° |
| 2026-05-04 19:21 | 47.45631 | 8.55996 | 1415 ft | 13 kts | 97° |
| 2026-05-04 19:22 | 47.45616 | 8.56167 | 1418 ft | 21 kts | 97° |
| 2026-05-04 19:22 | 47.45601 | 8.56404 | 1422 ft | 23 kts | 96° |
| 2026-05-04 19:22 | 47.45585 | 8.56635 | 1426 ft | 22 kts | 96° |
| 2026-05-04 19:22 | 47.45568 | 8.56851 | 1430 ft | 15 kts | 96° |
| 2026-05-04 19:23 | 47.45567 | 8.56962 | 1431 ft | 9 kts | 70° |
| 2026-05-04 19:23 | 47.45572 | 8.56976 | 1431 ft | 0 kts | 58° |
| 2026-05-04 19:25 | 47.45578 | 8.56988 | 1431 ft | 6 kts | 47° |
| 2026-05-04 19:25 | 47.45639 | 8.57008 | 1431 ft | 10 kts | 341° |
| 2026-05-04 19:25 | 47.45675 | 8.56930 | 1430 ft | 9 kts | 275° |
| 2026-05-04 19:25 | 47.45674 | 8.56856 | 1429 ft | 1 kts | 271° |
| 2026-05-04 19:26 | 47.45674 | 8.56855 | 1429 ft | 0 kts | 271° |
| 2026-05-04 19:26 | 47.45675 | 8.56840 | 1429 ft | 7 kts | 274° |
| 2026-05-04 19:26 | 47.45703 | 8.56460 | 1422 ft | 78 kts | 275° |
| 2026-05-04 19:26 | 47.45786 | 8.55233 | 1404 ft | 156 kts | 274° |
| 2026-05-04 19:27 | 47.45913 | 8.53445 | 1876 ft | 179 kts | 278° |
| 2026-05-04 19:27 | 47.46100 | 8.51557 | 2703 ft | 190 kts | 279° |
| 2026-05-04 19:27 | 47.46267 | 8.49701 | 3448 ft | 186 kts | 279° |
| 2026-05-04 19:27 | 47.46269 | 8.47772 | 3858 ft | 200 kts | 256° |
| 2026-05-04 19:28 | 47.45482 | 8.45981 | 4129 ft | 219 kts | 217° |
| 2026-05-04 19:28 | 47.44186 | 8.44651 | 4535 ft | 235 kts | 223° |
| 2026-05-04 19:28 | 47.43296 | 8.42573 | 4946 ft | 252 kts | 253° |
| 2026-05-04 19:28 | 47.42918 | 8.39973 | 5387 ft | 267 kts | 258° |
| 2026-05-04 19:29 | 47.42433 | 8.37311 | 6028 ft | 272 kts | 244° |
| 2026-05-04 19:29 | 47.41255 | 8.35131 | 6739 ft | 273 kts | 216° |
| 2026-05-04 19:29 | 47.39555 | 8.34034 | 7450 ft | 272 kts | 187° |
| 2026-05-04 19:29 | 47.37687 | 8.34233 | 8182 ft | 272 kts | 160° |
| 2026-05-04 19:30 | 47.36097 | 8.35692 | 8895 ft | 274 kts | 134° |
| 2026-05-04 19:30 | 47.35142 | 8.38082 | 9574 ft | 279 kts | 107° |
| 2026-05-04 19:30 | 47.34997 | 8.40991 | 10181 ft | 288 kts | 88° |
| 2026-05-04 19:30 | 47.35278 | 8.43999 | 10497 ft | 307 kts | 80° |
| 2026-05-04 19:31 | 47.35920 | 8.47113 | 10786 ft | 327 kts | 70° |
| 2026-05-04 19:31 | 47.36964 | 8.50174 | 11084 ft | 346 kts | 60° |
| 2026-05-04 19:31 | 47.38443 | 8.53065 | 11387 ft | 364 kts | 48° |
| 2026-05-04 19:31 | 47.40302 | 8.55779 | 11681 ft | 380 kts | 48° |
| 2026-05-04 19:32 | 47.41877 | 8.58926 | 12111 ft | 389 kts | 62° |
| 2026-05-04 19:32 | 47.42903 | 8.62617 | 12698 ft | 393 kts | 76° |
| 2026-05-04 19:32 | 47.43291 | 8.66598 | 13336 ft | 395 kts | 91° |
| 2026-05-04 19:32 | 47.43122 | 8.70641 | 13984 ft | 399 kts | 98° |
| 2026-05-04 19:33 | 47.42838 | 8.74743 | 14678 ft | 404 kts | 98° |
| 2026-05-04 19:33 | 47.42546 | 8.78888 | 15451 ft | 407 kts | 98° |
| 2026-05-04 19:33 | 47.42249 | 8.83080 | 16235 ft | 410 kts | 98° |
| 2026-05-04 19:33 | 47.41953 | 8.87249 | 16905 ft | 416 kts | 98° |
| 2026-05-04 19:34 | 47.41645 | 8.91540 | 17569 ft | 420 kts | 98° |
| 2026-05-04 19:34 | 47.41335 | 8.95853 | 18256 ft | 424 kts | 98° |
| 2026-05-04 19:34 | 47.41022 | 9.00182 | 18944 ft | 428 kts | 97° |
| 2026-05-04 19:34 | 47.40703 | 9.04572 | 19603 ft | 433 kts | 98° |
| 2026-05-04 19:35 | 47.40374 | 9.09065 | 20258 ft | 438 kts | 98° |
| 2026-05-04 19:35 | 47.40044 | 9.13561 | 20889 ft | 443 kts | 98° |
| 2026-05-04 19:35 | 47.39710 | 9.18079 | 21546 ft | 447 kts | 98° |
| 2026-05-04 19:35 | 47.39371 | 9.22651 | 22223 ft | 450 kts | 98° |
| 2026-05-04 19:36 | 47.39030 | 9.27210 | 22875 ft | 453 kts | 98° |
| 2026-05-04 19:36 | 47.38679 | 9.31879 | 23485 ft | 457 kts | 98° |
| 2026-05-04 19:36 | 47.38325 | 9.36574 | 24070 ft | 461 kts | 98° |
| 2026-05-04 19:36 | 47.37967 | 9.41289 | 24655 ft | 466 kts | 98° |
| 2026-05-04 19:37 | 47.37604 | 9.46040 | 25249 ft | 469 kts | 98° |
| 2026-05-04 19:37 | 47.37235 | 9.50858 | 25853 ft | 472 kts | 98° |
| 2026-05-04 19:37 | 47.36865 | 9.55640 | 26440 ft | 475 kts | 98° |
| 2026-05-04 19:37 | 47.36488 | 9.60502 | 27007 ft | 478 kts | 98° |
| 2026-05-04 19:38 | 47.36111 | 9.65336 | 27545 ft | 481 kts | 99° |
| 2026-05-04 19:38 | 47.35722 | 9.70293 | 28103 ft | 484 kts | 99° |
| 2026-05-04 19:38 | 47.35332 | 9.75230 | 28609 ft | 488 kts | 98° |
| 2026-05-04 19:38 | 47.34936 | 9.80229 | 29103 ft | 491 kts | 99° |
| 2026-05-04 19:39 | 47.34534 | 9.85261 | 29604 ft | 494 kts | 98° |
| 2026-05-04 19:39 | 47.34132 | 9.90275 | 30114 ft | 497 kts | 98° |
| 2026-05-04 19:39 | 47.33723 | 9.95341 | 30740 ft | 496 kts | 98° |
| 2026-05-04 19:39 | 47.33320 | 10.00324 | 31404 ft | 493 kts | 98° |
| 2026-05-04 19:40 | 47.32908 | 10.05382 | 31995 ft | 492 kts | 99° |
| 2026-05-04 19:40 | 47.32501 | 10.10343 | 32502 ft | 493 kts | 99° |
| 2026-05-04 19:40 | 47.32088 | 10.15363 | 33020 ft | 493 kts | 99° |
| 2026-05-04 19:40 | 47.31674 | 10.20352 | 33554 ft | 492 kts | 99° |
| 2026-05-04 19:41 | 47.31258 | 10.25352 | 34036 ft | 492 kts | 99° |
| 2026-05-04 19:41 | 47.30835 | 10.30393 | 34445 ft | 494 kts | 99° |
| 2026-05-04 19:41 | 47.30413 | 10.35413 | 34852 ft | 495 kts | 99° |
| 2026-05-04 19:41 | 47.29985 | 10.40429 | 35332 ft | 493 kts | 100° |
| 2026-05-04 19:42 | 47.29278 | 10.45271 | 35764 ft | 489 kts | 109° |
| 2026-05-04 19:42 | 47.28069 | 10.49933 | 36143 ft | 485 kts | 117° |
| 2026-05-04 19:42 | 47.26409 | 10.54237 | 36438 ft | 484 kts | 126° |
| 2026-05-04 19:42 | 47.24323 | 10.58122 | 36739 ft | 482 kts | 135° |
| 2026-05-04 19:43 | 47.21899 | 10.61435 | 37133 ft | 478 kts | 144° |
| 2026-05-04 19:43 | 47.19172 | 10.64172 | 37528 ft | 474 kts | 152° |
| 2026-05-04 19:43 | 47.16250 | 10.66441 | 37892 ft | 472 kts | 160° |
| 2026-05-04 19:43 | 47.13239 | 10.68209 | 38245 ft | 470 kts | 162° |
| 2026-05-04 19:44 | 47.10184 | 10.69907 | 38539 ft | 470 kts | 162° |
| 2026-05-04 19:44 | 47.07102 | 10.71607 | 38829 ft | 471 kts | 162° |
| 2026-05-04 19:44 | 47.04050 | 10.73285 | 39087 ft | 471 kts | 162° |
| 2026-05-04 19:44 | 47.00973 | 10.74980 | 39336 ft | 472 kts | 162° |
| 2026-05-04 19:45 | 46.97905 | 10.76717 | 39573 ft | 472 kts | 162° |
| 2026-05-04 19:45 | 46.94857 | 10.78446 | 39831 ft | 472 kts | 162° |
| 2026-05-04 19:45 | 46.91793 | 10.80181 | 40058 ft | 472 kts | 162° |
| 2026-05-04 19:45 | 46.88708 | 10.81924 | 40221 ft | 472 kts | 162° |
| 2026-05-04 19:46 | 46.85689 | 10.83626 | 40374 ft | 471 kts | 162° |
| 2026-05-04 19:46 | 46.82616 | 10.85355 | 40492 ft | 471 kts | 162° |
| 2026-05-04 19:46 | 46.79632 | 10.87314 | 40563 ft | 475 kts | 154° |
| 2026-05-04 19:47 | 46.74314 | 10.93145 | 40679 ft | 484 kts | 136° |
| 2026-05-04 19:47 | 46.72026 | 10.96792 | 40803 ft | 485 kts | 134° |
| 2026-05-04 19:47 | 46.69811 | 11.00436 | 40935 ft | 484 kts | 134° |
| 2026-05-04 19:47 | 46.67556 | 11.04145 | 41077 ft | 483 kts | 134° |
| 2026-05-04 19:48 | 46.65357 | 11.07751 | 41130 ft | 484 kts | 134° |
| 2026-05-04 19:48 | 46.60857 | 11.15106 | 41145 ft | 485 kts | 134° |
| 2026-05-04 19:49 | 46.56406 | 11.22354 | 41125 ft | 484 kts | 134° |
| 2026-05-04 19:49 | 46.51879 | 11.29700 | 41085 ft | 485 kts | 134° |
| 2026-05-04 19:50 | 46.47400 | 11.36949 | 41094 ft | 485 kts | 134° |
| 2026-05-04 19:50 | 46.42914 | 11.44188 | 41112 ft | 485 kts | 134° |
| 2026-05-04 19:51 | 46.38405 | 11.51444 | 41137 ft | 486 kts | 134° |
| 2026-05-04 19:51 | 46.33883 | 11.58701 | 41143 ft | 486 kts | 134° |
| 2026-05-04 19:52 | 46.29377 | 11.65914 | 41137 ft | 484 kts | 134° |
| 2026-05-04 19:52 | 46.24857 | 11.73130 | 41128 ft | 486 kts | 134° |
| 2026-05-04 19:53 | 46.20326 | 11.80343 | 41134 ft | 486 kts | 134° |
| 2026-05-04 19:53 | 46.15784 | 11.87556 | 41130 ft | 486 kts | 134° |
| 2026-05-04 19:54 | 46.11226 | 11.94774 | 41122 ft | 486 kts | 134° |
| 2026-05-04 19:54 | 46.06668 | 12.01973 | 41122 ft | 486 kts | 135° |
| 2026-05-04 19:55 | 46.02139 | 12.09108 | 41109 ft | 486 kts | 134° |
| 2026-05-04 19:55 | 45.97580 | 12.16270 | 41086 ft | 487 kts | 134° |
| 2026-05-04 19:56 | 45.93000 | 12.23447 | 41079 ft | 487 kts | 134° |
| 2026-05-04 19:56 | 45.88426 | 12.30664 | 41076 ft | 488 kts | 133° |
| 2026-05-04 19:57 | 45.83992 | 12.38084 | 41071 ft | 489 kts | 132° |
| 2026-05-04 19:57 | 45.79551 | 12.45499 | 41070 ft | 489 kts | 132° |
| 2026-05-04 19:58 | 45.75110 | 12.52877 | 41068 ft | 489 kts | 132° |
| 2026-05-04 19:58 | 45.70655 | 12.60252 | 41066 ft | 491 kts | 132° |
| 2026-05-04 19:59 | 45.66198 | 12.67606 | 41063 ft | 489 kts | 133° |
| 2026-05-04 19:59 | 45.61713 | 12.74984 | 41065 ft | 491 kts | 133° |
| 2026-05-04 20:00 | 45.57255 | 12.82297 | 41065 ft | 490 kts | 133° |
| 2026-05-04 20:00 | 45.52772 | 12.89631 | 41068 ft | 490 kts | 133° |
| 2026-05-04 20:01 | 45.48288 | 12.96946 | 41065 ft | 490 kts | 133° |
| 2026-05-04 20:01 | 45.43817 | 13.04222 | 41064 ft | 491 kts | 133° |
| 2026-05-04 20:02 | 45.39318 | 13.11524 | 41068 ft | 492 kts | 133° |
| 2026-05-04 20:02 | 45.34801 | 13.18835 | 41067 ft | 491 kts | 133° |
| 2026-05-04 20:03 | 45.30306 | 13.26077 | 41069 ft | 490 kts | 134° |
| 2026-05-04 20:03 | 45.25561 | 13.32949 | 40904 ft | 483 kts | 136° |
| 2026-05-04 20:03 | 45.23235 | 13.36275 | 40413 ft | 481 kts | 136° |
| 2026-05-04 20:04 | 45.20879 | 13.39646 | 39427 ft | 486 kts | 136° |
| 2026-05-04 20:04 | 45.18496 | 13.43058 | 38327 ft | 491 kts | 136° |
| 2026-05-04 20:04 | 45.16081 | 13.46517 | 37376 ft | 492 kts | 136° |
| 2026-05-04 20:04 | 45.13709 | 13.49915 | 36596 ft | 491 kts | 136° |
| 2026-05-04 20:05 | 45.11314 | 13.53346 | 35781 ft | 490 kts | 136° |
| 2026-05-04 20:05 | 45.08909 | 13.56786 | 34952 ft | 489 kts | 136° |
| 2026-05-04 20:05 | 45.06553 | 13.60156 | 34896 ft | 482 kts | 136° |
| 2026-05-04 20:05 | 45.04166 | 13.63564 | 35194 ft | 487 kts | 136° |
| 2026-05-04 20:06 | 45.01798 | 13.66940 | 35469 ft | 492 kts | 137° |
| 2026-05-04 20:06 | 44.96954 | 13.73839 | 35500 ft | 494 kts | 137° |
| 2026-05-04 20:07 | 44.92125 | 13.80701 | 35495 ft | 494 kts | 137° |
| 2026-05-04 20:07 | 44.87264 | 13.87591 | 35505 ft | 493 kts | 137° |
| 2026-05-04 20:08 | 44.82408 | 13.94457 | 35504 ft | 496 kts | 137° |
| 2026-05-04 20:08 | 44.77578 | 14.01270 | 35504 ft | 494 kts | 137° |
| 2026-05-04 20:09 | 44.72709 | 14.08120 | 35578 ft | 494 kts | 137° |
| 2026-05-04 20:09 | 44.67818 | 14.14983 | 35505 ft | 496 kts | 137° |
| 2026-05-04 20:10 | 44.62938 | 14.21814 | 35504 ft | 498 kts | 137° |
| 2026-05-04 20:10 | 44.58025 | 14.28674 | 35499 ft | 498 kts | 136° |
| 2026-05-04 20:11 | 44.53130 | 14.35492 | 35504 ft | 498 kts | 136° |
| 2026-05-04 20:11 | 44.48215 | 14.42320 | 35502 ft | 499 kts | 136° |
| 2026-05-04 20:12 | 44.43294 | 14.49138 | 35505 ft | 501 kts | 136° |
| 2026-05-04 20:12 | 44.38324 | 14.56010 | 35442 ft | 501 kts | 136° |
| 2026-05-04 20:12 | 44.35862 | 14.59405 | 34949 ft | 505 kts | 136° |
| 2026-05-04 20:13 | 44.33353 | 14.62863 | 34298 ft | 503 kts | 136° |
| 2026-05-04 20:13 | 44.30886 | 14.66258 | 33610 ft | 502 kts | 137° |
| 2026-05-04 20:13 | 44.28404 | 14.69670 | 32835 ft | 502 kts | 137° |
| 2026-05-04 20:13 | 44.25925 | 14.73073 | 31940 ft | 497 kts | 137° |
| 2026-05-04 20:14 | 44.23470 | 14.76440 | 31217 ft | 490 kts | 137° |
| 2026-05-04 20:14 | 44.21061 | 14.79740 | 30519 ft | 483 kts | 136° |
| 2026-05-04 20:14 | 44.18687 | 14.82986 | 29799 ft | 476 kts | 136° |
| 2026-05-04 20:14 | 44.16343 | 14.86189 | 29068 ft | 470 kts | 136° |
| 2026-05-04 20:15 | 44.14059 | 14.89305 | 28362 ft | 465 kts | 136° |
| 2026-05-04 20:15 | 44.11756 | 14.92444 | 27598 ft | 460 kts | 136° |
| 2026-05-04 20:15 | 44.09469 | 14.95557 | 26839 ft | 456 kts | 136° |
| 2026-05-04 20:15 | 44.07235 | 14.98595 | 26080 ft | 452 kts | 136° |
| 2026-05-04 20:16 | 44.04994 | 15.01639 | 25323 ft | 448 kts | 136° |
| 2026-05-04 20:16 | 44.02777 | 15.04647 | 24579 ft | 445 kts | 136° |
| 2026-05-04 20:16 | 44.00566 | 15.07644 | 23782 ft | 438 kts | 136° |
| 2026-05-04 20:16 | 43.98406 | 15.10569 | 23067 ft | 425 kts | 136° |
| 2026-05-04 20:17 | 43.96329 | 15.13378 | 22371 ft | 415 kts | 136° |
| 2026-05-04 20:17 | 43.94290 | 15.16133 | 21654 ft | 410 kts | 136° |
| 2026-05-04 20:17 | 43.92189 | 15.18861 | 21098 ft | 414 kts | 140° |
| 2026-05-04 20:17 | 43.90008 | 15.21457 | 20484 ft | 412 kts | 140° |
| 2026-05-04 20:18 | 43.87854 | 15.24008 | 19850 ft | 407 kts | 140° |
| 2026-05-04 20:18 | 43.85708 | 15.26556 | 19240 ft | 401 kts | 140° |
| 2026-05-04 20:18 | 43.83600 | 15.29062 | 18622 ft | 395 kts | 140° |
| 2026-05-04 20:18 | 43.81543 | 15.31510 | 18008 ft | 390 kts | 140° |
| 2026-05-04 20:19 | 43.79521 | 15.33918 | 17393 ft | 385 kts | 140° |
| 2026-05-04 20:19 | 43.77511 | 15.36311 | 16784 ft | 380 kts | 140° |
| 2026-05-04 20:19 | 43.75520 | 15.38681 | 16179 ft | 375 kts | 140° |
| 2026-05-04 20:19 | 43.73564 | 15.41007 | 15551 ft | 369 kts | 140° |
| 2026-05-04 20:20 | 43.71634 | 15.43303 | 14946 ft | 364 kts | 140° |
| 2026-05-04 20:20 | 43.69746 | 15.45546 | 14353 ft | 359 kts | 140° |
| 2026-05-04 20:20 | 43.67867 | 15.47778 | 13727 ft | 354 kts | 140° |
| 2026-05-04 20:20 | 43.65997 | 15.49997 | 13121 ft | 349 kts | 140° |
| 2026-05-04 20:21 | 43.64177 | 15.52154 | 12562 ft | 344 kts | 140° |
| 2026-05-04 20:21 | 43.62371 | 15.54295 | 12119 ft | 335 kts | 140° |
| 2026-05-04 20:21 | 43.58931 | 15.58365 | 11296 ft | 323 kts | 140° |
| 2026-05-04 20:22 | 43.57227 | 15.60378 | 10950 ft | 318 kts | 140° |
| 2026-05-04 20:22 | 43.55559 | 15.62348 | 10623 ft | 313 kts | 140° |
| 2026-05-04 20:22 | 43.53934 | 15.64266 | 10307 ft | 308 kts | 140° |
| 2026-05-04 20:22 | 43.52304 | 15.66188 | 10025 ft | 303 kts | 140° |
| 2026-05-04 20:23 | 43.50721 | 15.68054 | 9774 ft | 296 kts | 140° |
| 2026-05-04 20:23 | 43.49177 | 15.69871 | 9538 ft | 286 kts | 140° |
| 2026-05-04 20:23 | 43.47696 | 15.71615 | 9322 ft | 271 kts | 141° |
| 2026-05-04 20:23 | 43.46294 | 15.73264 | 9136 ft | 262 kts | 141° |
| 2026-05-04 20:24 | 43.44903 | 15.74898 | 8892 ft | 260 kts | 140° |
| 2026-05-04 20:24 | 43.43526 | 15.76515 | 8650 ft | 258 kts | 140° |
| 2026-05-04 20:24 | 43.42172 | 15.78073 | 8396 ft | 255 kts | 146° |
| 2026-05-04 20:24 | 43.40566 | 15.79036 | 8125 ft | 251 kts | 171° |
| 2026-05-04 20:25 | 43.38839 | 15.78959 | 7863 ft | 249 kts | 195° |
| 2026-05-04 20:25 | 43.37319 | 15.77908 | 7607 ft | 247 kts | 218° |
| 2026-05-04 20:25 | 43.36026 | 15.76320 | 7367 ft | 245 kts | 223° |
| 2026-05-04 20:25 | 43.34840 | 15.74711 | 7146 ft | 239 kts | 224° |
| 2026-05-04 20:26 | 43.33646 | 15.73157 | 6890 ft | 232 kts | 215° |
| 2026-05-04 20:26 | 43.32202 | 15.72262 | 6637 ft | 226 kts | 192° |
| 2026-05-04 20:26 | 43.30646 | 15.72163 | 6388 ft | 221 kts | 180° |
| 2026-05-04 20:26 | 43.29140 | 15.71853 | 6144 ft | 216 kts | 190° |
| 2026-05-04 20:27 | 43.27675 | 15.71830 | 5882 ft | 212 kts | 169° |
| 2026-05-04 20:27 | 43.26350 | 15.72653 | 5607 ft | 207 kts | 137° |
| 2026-05-04 20:27 | 43.25632 | 15.74309 | 5331 ft | 204 kts | 102° |
| 2026-05-04 20:27 | 43.25544 | 15.76221 | 5090 ft | 199 kts | 95° |
| 2026-05-04 20:28 | 43.25502 | 15.78074 | 4853 ft | 194 kts | 91° |
| 2026-05-04 20:28 | 43.25720 | 15.79853 | 4604 ft | 190 kts | 63° |
| 2026-05-04 20:28 | 43.26471 | 15.81327 | 4357 ft | 186 kts | 53° |
| 2026-05-04 20:28 | 43.27261 | 15.82702 | 4156 ft | 179 kts | 52° |
| 2026-05-04 20:29 | 43.28017 | 15.83980 | 4137 ft | 166 kts | 52° |
| 2026-05-04 20:29 | 43.28730 | 15.85188 | 4133 ft | 161 kts | 52° |
| 2026-05-04 20:29 | 43.29415 | 15.86369 | 4132 ft | 158 kts | 53° |
| 2026-05-04 20:29 | 43.30104 | 15.87571 | 4145 ft | 163 kts | 53° |
| 2026-05-04 20:30 | 43.30817 | 15.88826 | 4152 ft | 170 kts | 53° |
| 2026-05-04 20:30 | 43.31546 | 15.90113 | 4154 ft | 171 kts | 53° |
| 2026-05-04 20:30 | 43.32288 | 15.91422 | 4155 ft | 172 kts | 53° |
| 2026-05-04 20:30 | 43.33013 | 15.92701 | 4156 ft | 172 kts | 53° |
| 2026-05-04 20:31 | 43.33749 | 15.94002 | 4160 ft | 172 kts | 53° |
| 2026-05-04 20:31 | 43.34488 | 15.95308 | 4158 ft | 172 kts | 53° |
| 2026-05-04 20:31 | 43.35247 | 15.96650 | 4166 ft | 184 kts | 53° |
| 2026-05-04 20:31 | 43.36053 | 15.98084 | 4169 ft | 192 kts | 53° |
| 2026-05-04 20:32 | 43.36873 | 15.99540 | 4168 ft | 194 kts | 53° |
| 2026-05-04 20:32 | 43.37703 | 16.01012 | 4168 ft | 194 kts | 53° |
| 2026-05-04 20:32 | 43.38538 | 16.02490 | 4174 ft | 199 kts | 53° |
| 2026-05-04 20:32 | 43.39413 | 16.04049 | 4184 ft | 214 kts | 53° |
| 2026-05-04 20:33 | 43.40292 | 16.05617 | 4163 ft | 216 kts | 53° |
| 2026-05-04 20:33 | 43.41225 | 16.07274 | 3877 ft | 215 kts | 52° |
| 2026-05-04 20:33 | 43.42135 | 16.08885 | 3600 ft | 210 kts | 52° |
| 2026-05-04 20:33 | 43.43016 | 16.10442 | 3328 ft | 205 kts | 52° |
| 2026-05-04 20:34 | 43.43885 | 16.11977 | 3073 ft | 199 kts | 52° |
| 2026-05-04 20:34 | 43.44725 | 16.13463 | 2814 ft | 195 kts | 52° |
| 2026-05-04 20:34 | 43.45548 | 16.14924 | 2559 ft | 192 kts | 52° |
| 2026-05-04 20:34 | 43.46369 | 16.16383 | 2299 ft | 190 kts | 52° |
| 2026-05-04 20:35 | 43.47171 | 16.17809 | 2045 ft | 187 kts | 53° |
| 2026-05-04 20:35 | 43.47935 | 16.19167 | 1800 ft | 173 kts | 53° |
| 2026-05-04 20:35 | 43.48655 | 16.20446 | 1574 ft | 163 kts | 53° |
| 2026-05-04 20:35 | 43.49334 | 16.21655 | 1356 ft | 156 kts | 53° |
| 2026-05-04 20:36 | 43.49953 | 16.22779 | 1178 ft | 140 kts | 53° |
| 2026-05-04 20:36 | 43.50527 | 16.23821 | 879 ft | 134 kts | 52° |
| 2026-05-04 20:36 | 43.51088 | 16.24780 | 653 ft | 127 kts | 51° |
| 2026-05-04 20:36 | 43.51629 | 16.25735 | 536 ft | 126 kts | 53° |
| 2026-05-04 20:37 | 43.52159 | 16.26711 | 408 ft | 128 kts | 51° |
| 2026-05-04 20:37 | 43.52707 | 16.27664 | 263 ft | 126 kts | 51° |
| 2026-05-04 20:37 | 43.53247 | 16.28640 | 95 ft | 126 kts | 52° |
| 2026-05-04 20:37 | 43.53723 | 16.29493 | 67 ft | 88 kts | 52° |
| 2026-05-04 20:38 | 43.53988 | 16.29961 | 65 ft | 34 kts | 53° |
| 2026-05-04 20:38 | 43.54029 | 16.30096 | 64 ft | 11 kts | 145° |
| 2026-05-04 20:38 | 43.53943 | 16.30074 | 64 ft | 14 kts | 197° |
| 2026-05-04 20:38 | 43.53870 | 16.29999 | 64 ft | 14 kts | 229° |
| 2026-05-04 20:39 | 43.53824 | 16.29931 | 64 ft | 8 kts | 200° |
| 2026-05-04 20:39 | 43.53785 | 16.29942 | 64 ft | 1 kts | 159° |